METAR UND TAF INFORMATION
YMML 210630Z 05005KT 020V090 9999 FEW044 18/05 Q1016 NOSIG

 FLUGHAFENKARTE

 RUNWAY INFORMATION
Runway 09 Runway length 7500 ft Runway width 148 ft
Runway elevation 395 ft Runway displaced threshold 0 ft Runway heading 94
Runway 27 Runway length 7500 ft Runway width 148 ft
Runway elevation 407 ft Runway displaced threshold 0 ft Runway heading 274
Runway 16 Runway length 11998 ft Runway width 197 ft
Runway elevation 432 ft Runway displaced threshold 0 ft Runway heading 171
Runway 34 Runway length 11998 ft Runway width 197 ft
Runway elevation 330 ft Runway displaced threshold 0 ft Runway heading 351

 AIRPORT FREQUENCIES
Type APP Name APP Frequency 132 MHZ
Type ATIS Name ATIS Frequency 114.1 MHZ
Type CLD Name CLNC DEL Frequency 127.2 MHZ
Type DEP Name DEP Frequency 118.9 MHZ
Type GND Name GND Frequency 121.7 MHZ
Type TWR Name TWR Frequency 120.5 MHZ

 AIRPORT NEAR NAVIGATION AIDS
Type NDB Name Bolinda Frequency 362 KHZ
Type NDB Name Epping Frequency 377 KHZ
Type VOR-DME Name Melbourne Frequency 114100 KHZ
Type NDB Name Rockdale Frequency 338 KHZ



Aktuelle Version 4.2.2: Changelog

Impressum | Datenschutzerklärung

Virtual Airlines Manager